Time;durP1;ratioP1;P1;durP2;ratioP2;P2;SDS_P1;SDS_P2;PMS_P1;PMS_P2;Temp;Humidity;BMP_temperature;BMP_pressure;BME280_temperature;BME280_humidity;BME280_pressure;Samples;Min_cycle;Max_cycle;Signal;HPM_P1;HPM_P2
2022/08/16 00:00:22;;;;;;;2.65;2.22;;;25.80;47.10;;;;;;5127523;27;45217;-74
2022/08/16 00:02:48;;;;;;;4.78;2.70;;;25.80;47.60;;;;;;5128116;27;45329;-74
2022/08/16 00:05:15;;;;;;;3.30;2.38;;;25.80;46.90;;;;;;5128035;27;46602;-73
2022/08/16 00:07:42;;;;;;;3.80;2.42;;;25.80;46.90;;;;;;5128071;27;45271;-74
2022/08/16 00:10:12;;;;;;;3.05;2.10;;;25.80;47.00;;;;;;5128407;27;45216;-73
2022/08/16 00:12:40;;;;;;;3.22;2.30;;;25.80;47.00;;;;;;5128376;27;45215;-73
2022/08/16 00:15:10;;;;;;;3.25;2.35;;;25.80;47.10;;;;;;5127854;27;45665;-74
2022/08/16 00:17:37;;;;;;;2.30;2.10;;;25.80;47.00;;;;;;5128207;27;45221;-74
2022/08/16 00:20:07;;;;;;;2.78;2.17;;;25.80;47.20;;;;;;5127992;27;45251;-73
2022/08/16 00:22:34;;;;;;;2.33;2.13;;;25.70;47.00;;;;;;5128216;27;45301;-74
2022/08/16 00:25:01;;;;;;;2.78;2.30;;;25.80;47.10;;;;;;5127685;27;47271;-73
2022/08/16 00:27:29;;;;;;;2.05;1.95;;;25.80;47.20;;;;;;5127801;27;45276;-74
2022/08/16 00:29:56;;;;;;;2.53;2.33;;;25.70;47.20;;;;;;5127974;27;45308;-73
2022/08/16 00:32:23;;;;;;;2.47;2.38;;;25.70;47.20;;;;;;5128265;27;45394;-73
2022/08/16 00:34:50;;;;;;;2.50;2.30;;;25.70;47.10;;;;;;5127672;27;45136;-73
2022/08/16 00:37:17;;;;;;;3.60;2.30;;;25.70;47.20;;;;;;5127539;27;45199;-73
2022/08/16 00:39:44;;;;;;;2.25;2.13;;;25.70;47.30;;;;;;5130288;27;45444;-73
2022/08/16 00:42:10;;;;;;;2.70;2.38;;;25.70;47.20;;;;;;5131604;27;45243;-73
2022/08/16 00:44:39;;;;;;;2.90;2.60;;;25.70;47.20;;;;;;5131234;27;47226;-73
2022/08/16 00:47:07;;;;;;;2.53;2.33;;;25.70;47.30;;;;;;5131091;27;45125;-73
2022/08/16 00:49:34;;;;;;;2.58;2.10;;;25.70;47.40;;;;;;5130528;27;45313;-73
2022/08/16 00:52:01;;;;;;;2.50;2.28;;;25.70;47.30;;;;;;5121798;27;45279;-73
2022/08/16 00:54:29;;;;;;;3.55;2.28;;;25.70;47.30;;;;;;5110280;27;46351;-73
2022/08/16 00:56:56;;;;;;;2.45;2.25;;;25.70;47.30;;;;;;5110521;27;45255;-73
2022/08/16 00:59:24;;;;;;;3.13;2.00;;;25.70;47.40;;;;;;5110453;27;45165;-73
2022/08/16 01:01:52;;;;;;;2.67;2.33;;;25.70;47.40;;;;;;5110554;27;45305;-73
2022/08/16 01:04:21;;;;;;;3.22;2.13;;;25.60;47.40;;;;;;5110183;27;45219;-73
2022/08/16 01:06:48;;;;;;;3.55;2.17;;;25.60;47.30;;;;;;5110305;27;45191;-73
2022/08/16 01:09:14;;;;;;;3.08;2.33;;;25.60;47.30;;;;;;5110346;27;45382;-73
2022/08/16 01:11:41;;;;;;;2.35;1.98;;;25.60;47.40;;;;;;5110297;27;45278;-73
2022/08/16 01:14:10;;;;;;;2.83;2.40;;;25.60;47.50;;;;;;5110038;27;46387;-73
2022/08/16 01:16:37;;;;;;;2.50;2.20;;;25.60;47.50;;;;;;5109948;27;45176;-73
2022/08/16 01:19:10;;;;;;;2.33;2.13;;;25.60;47.50;;;;;;5110181;27;45231;-73
2022/08/16 01:21:39;;;;;;;2.70;2.40;;;25.60;47.50;;;;;;5110297;27;45195;-73
2022/08/16 01:24:13;;;;;;;2.67;2.20;;;25.60;47.50;;;;;;5109789;27;46386;-73
2022/08/16 01:26:40;;;;;;;4.15;2.45;;;25.60;47.50;;;;;;5109866;27;45278;-73
2022/08/16 01:29:09;;;;;;;2.40;2.20;;;25.60;47.50;;;;;;5109927;27;45270;-73
2022/08/16 01:31:36;;;;;;;2.85;2.38;;;25.60;47.60;;;;;;5110186;27;45195;-73
2022/08/16 01:34:03;;;;;;;2.50;2.30;;;25.50;47.50;;;;;;5109677;27;46578;-74
2022/08/16 01:36:30;;;;;;;3.95;2.45;;;25.50;47.60;;;;;;5109476;27;45182;-73
2022/08/16 01:38:56;;;;;;;2.10;2.00;;;25.60;47.60;;;;;;5109736;27;45242;-72
2022/08/16 01:41:26;;;;;;;2.60;2.25;;;25.50;47.60;;;;;;5109213;27;45439;-73
2022/08/16 01:43:53;;;;;;;2.40;2.00;;;25.50;47.70;;;;;;5109395;27;45476;-73
2022/08/16 01:46:21;;;;;;;3.80;2.10;;;25.50;47.70;;;;;;5109622;27;45304;-73
2022/08/16 01:48:48;;;;;;;5.60;2.40;;;25.50;47.60;;;;;;5109696;27;45259;-73
2022/08/16 01:51:16;;;;;;;2.45;2.25;;;25.50;47.60;;;;;;5111819;27;45466;-73
2022/08/16 01:53:43;;;;;;;2.30;2.17;;;25.50;47.60;;;;;;5130279;27;45328;-73
2022/08/16 01:56:10;;;;;;;3.30;2.40;;;25.50;47.60;;;;;;5130228;27;45217;-73
2022/08/16 01:58:38;;;;;;;2.70;2.50;;;25.50;47.50;;;;;;5130344;27;45301;-73
2022/08/16 02:01:06;;;;;;;2.40;2.20;;;25.50;47.50;;;;;;5130284;27;45283;-73
2022/08/16 02:03:32;;;;;;;4.00;2.42;;;25.50;47.60;;;;;;5129963;27;45683;-73
2022/08/16 02:05:59;;;;;;;2.50;2.33;;;25.50;47.70;;;;;;5130079;27;45137;-74
2022/08/16 02:08:26;;;;;;;3.08;2.13;;;25.40;47.60;;;;;;5130232;27;45285;-73
2022/08/16 02:10:54;;;;;;;2.92;2.70;;;25.40;47.60;;;;;;5130273;27;45634;-73
2022/08/16 02:13:21;;;;;;;3.72;2.20;;;25.40;47.60;;;;;;5129918;27;46687;-73
2022/08/16 02:15:49;;;;;;;2.78;2.40;;;25.40;47.50;;;;;;5129992;27;45179;-74
2022/08/16 02:18:16;;;;;;;2.67;2.28;;;25.40;47.50;;;;;;5129917;27;45340;-74
2022/08/16 02:20:43;;;;;;;2.50;2.30;;;25.40;47.70;;;;;;5129932;27;45291;-74
2022/08/16 02:23:11;;;;;;;2.58;2.30;;;25.40;47.80;;;;;;5129538;27;45291;-74
2022/08/16 02:25:38;;;;;;;2.50;2.30;;;25.40;47.80;;;;;;5129713;27;45254;-74
2022/08/16 02:28:05;;;;;;;2.55;2.33;;;25.30;47.70;;;;;;5128989;27;45272;-73
2022/08/16 02:30:32;;;;;;;3.42;2.50;;;25.30;47.80;;;;;;5117694;27;45470;-73
2022/08/16 02:33:00;;;;;;;2.65;2.35;;;25.30;47.80;;;;;;5108764;27;45283;-73
2022/08/16 02:35:27;;;;;;;2.50;2.30;;;25.40;47.80;;;;;;5108838;27;45217;-73
2022/08/16 02:37:54;;;;;;;2.92;2.47;;;25.30;47.80;;;;;;5108535;27;45204;-73
2022/08/16 02:40:21;;;;;;;2.50;2.30;;;25.30;47.80;;;;;;5109093;27;45359;-73
2022/08/16 02:42:48;;;;;;;2.55;2.25;;;25.30;47.80;;;;;;5108583;27;46654;-73
2022/08/16 02:45:16;;;;;;;2.67;2.28;;;25.30;47.80;;;;;;5108851;27;45268;-73
2022/08/16 02:47:42;;;;;;;2.97;2.50;;;25.30;47.80;;;;;;5108729;27;45176;-73
2022/08/16 02:50:11;;;;;;;2.92;2.50;;;25.30;47.90;;;;;;5109068;27;45200;-73
2022/08/16 02:52:37;;;;;;;2.97;2.28;;;25.30;47.90;;;;;;5123146;27;45292;-73
2022/08/16 02:55:05;;;;;;;2.80;2.50;;;25.20;47.80;;;;;;5129239;27;45241;-73
2022/08/16 02:57:32;;;;;;;2.38;2.15;;;25.20;47.90;;;;;;5129371;27;45224;-73
2022/08/16 02:59:59;;;;;;;2.83;2.63;;;25.30;48.00;;;;;;5129558;27;45201;-73
2022/08/16 03:02:26;;;;;;;2.60;2.40;;;25.20;48.00;;;;;;5128868;27;45381;-73
2022/08/16 03:04:53;;;;;;;2.80;2.60;;;25.20;47.90;;;;;;5129025;27;45266;-73
2022/08/16 03:07:21;;;;;;;2.72;2.50;;;25.20;48.00;;;;;;5129240;27;45300;-74
2022/08/16 03:09:48;;;;;;;4.30;2.53;;;25.20;47.90;;;;;;5129378;27;45403;-73
2022/08/16 03:12:15;;;;;;;2.67;2.42;;;25.20;47.90;;;;;;5128919;27;46518;-73
2022/08/16 03:14:41;;;;;;;2.78;2.55;;;25.20;48.00;;;;;;5128290;27;45262;-73
2022/08/16 03:17:08;;;;;;;4.10;2.42;;;25.20;47.90;;;;;;5128958;27;45305;-74
2022/08/16 03:19:35;;;;;;;2.75;2.55;;;25.20;48.60;;;;;;5128955;27;45447;-74
2022/08/16 03:22:02;;;;;;;2.95;2.50;;;25.20;48.00;;;;;;5128573;27;46401;-73
2022/08/16 03:24:30;;;;;;;2.53;2.33;;;25.20;48.10;;;;;;5128693;27;45275;-73
2022/08/16 03:26:58;;;;;;;3.75;2.60;;;25.10;47.80;;;;;;5128904;27;45224;-73
2022/08/16 03:29:26;;;;;;;3.00;2.38;;;25.10;48.60;;;;;;5129069;27;45325;-73
2022/08/16 03:31:53;;;;;;;2.72;2.53;;;25.10;48.00;;;;;;5128517;27;47579;-74
2022/08/16 03:34:19;;;;;;;2.80;2.60;;;25.10;47.90;;;;;;5128487;27;45168;-74
2022/08/16 03:36:46;;;;;;;5.45;2.58;;;25.10;47.90;;;;;;5128617;27;45227;-74
2022/08/16 03:39:13;;;;;;;2.60;2.40;;;25.10;47.90;;;;;;5128738;27;45251;-73
2022/08/16 03:41:41;;;;;;;2.35;2.25;;;25.10;48.00;;;;;;5128420;27;46377;-73
2022/08/16 03:44:08;;;;;;;2.83;2.60;;;25.10;48.00;;;;;;5128324;27;45134;-74
2022/08/16 03:46:35;;;;;;;2.90;2.60;;;25.10;48.00;;;;;;5128461;27;45245;-73
2022/08/16 03:49:02;;;;;;;2.65;2.45;;;25.10;47.90;;;;;;5128720;27;45460;-74
2022/08/16 03:51:29;;;;;;;2.83;2.50;;;25.00;47.90;;;;;;5123301;27;45491;-73
2022/08/16 03:53:56;;;;;;;3.08;2.40;;;25.10;48.00;;;;;;5107680;27;45227;-74
2022/08/16 03:56:25;;;;;;;3.45;2.50;;;25.00;47.90;;;;;;5107672;27;45224;-73
2022/08/16 03:58:55;;;;;;;2.60;2.40;;;25.00;48.00;;;;;;5107417;27;45538;-73
2022/08/16 04:01:22;;;;;;;3.20;2.70;;;25.00;48.00;;;;;;5106769;27;47256;-74
2022/08/16 04:03:49;;;;;;;2.50;2.30;;;25.00;48.00;;;;;;5107429;27;45268;-73
2022/08/16 04:06:16;;;;;;;2.88;2.60;;;25.00;48.00;;;;;;5107569;27;45333;-73
2022/08/16 04:08:43;;;;;;;3.85;2.40;;;25.00;48.10;;;;;;5107854;27;45223;-73
2022/08/16 04:11:10;;;;;;;3.50;2.60;;;24.90;48.10;;;;;;5107355;27;46431;-73
2022/08/16 04:13:37;;;;;;;3.13;2.83;;;25.00;48.10;;;;;;5108203;27;45134;-73
2022/08/16 04:16:06;;;;;;;2.60;2.40;;;24.90;48.00;;;;;;5111434;27;45273;-74
2022/08/16 04:18:35;;;;;;;3.88;2.50;;;24.90;48.10;;;;;;5111258;27;45322;-74
2022/08/16 04:21:02;;;;;;;2.80;2.58;;;24.90;48.10;;;;;;5110758;27;45309;-73
2022/08/16 04:23:29;;;;;;;3.47;2.60;;;24.90;48.10;;;;;;5111142;27;45269;-73
2022/08/16 04:25:56;;;;;;;2.53;2.33;;;24.90;48.10;;;;;;5110957;27;45284;-73
2022/08/16 04:28:22;;;;;;;3.40;2.50;;;24.90;48.00;;;;;;5111134;27;45255;-74
2022/08/16 04:30:49;;;;;;;2.90;2.47;;;24.90;48.00;;;;;;5124989;27;45342;-73
2022/08/16 04:33:18;;;;;;;3.03;2.60;;;24.90;48.10;;;;;;5131352;27;45270;-74
2022/08/16 04:35:45;;;;;;;3.42;2.40;;;24.90;48.10;;;;;;5131567;27;45187;-74
2022/08/16 04:38:12;;;;;;;2.63;2.42;;;24.90;48.00;;;;;;5131676;27;45339;-74
2022/08/16 04:40:39;;;;;;;2.72;2.53;;;24.90;48.10;;;;;;5131323;27;45316;-73
2022/08/16 04:43:05;;;;;;;2.83;2.50;;;24.90;48.10;;;;;;5131412;27;45307;-74
2022/08/16 04:45:32;;;;;;;2.55;2.33;;;24.90;48.10;;;;;;5131135;27;45175;-73
2022/08/16 04:47:59;;;;;;;3.08;2.42;;;24.90;48.60;;;;;;5130919;27;45151;-74
2022/08/16 04:50:28;;;;;;;2.97;2.67;;;24.80;48.00;;;;;;5131164;27;46617;-73
2022/08/16 04:52:55;;;;;;;3.38;2.75;;;24.80;48.10;;;;;;5113861;27;45361;-73
2022/08/16 04:55:24;;;;;;;3.83;2.50;;;24.80;48.00;;;;;;5110807;27;45235;-74
2022/08/16 04:57:51;;;;;;;2.78;2.58;;;24.80;48.10;;;;;;5110753;27;45230;-74
2022/08/16 05:00:21;;;;;;;2.97;2.78;;;24.80;48.10;;;;;;5110374;27;46482;-74
2022/08/16 05:02:49;;;;;;;4.55;2.60;;;24.80;48.10;;;;;;5110419;27;45179;-74
2022/08/16 05:05:16;;;;;;;2.60;2.40;;;24.90;48.20;;;;;;5110540;27;45217;-74
2022/08/16 05:07:44;;;;;;;3.53;2.47;;;24.80;48.00;;;;;;5110637;27;45307;-74
2022/08/16 05:10:11;;;;;;;4.68;2.53;;;24.80;48.00;;;;;;5110128;27;45403;-73
2022/08/16 05:12:37;;;;;;;2.70;2.50;;;24.80;48.10;;;;;;5107588;27;45250;-74
2022/08/16 05:15:05;;;;;;;4.47;2.97;;;24.80;48.00;;;;;;5110174;27;45310;-74
2022/08/16 05:17:32;;;;;;;3.10;2.65;;;24.80;48.10;;;;;;5110324;27;45209;-73
2022/08/16 05:19:59;;;;;;;2.85;2.60;;;24.80;48.10;;;;;;5109784;27;45261;-74
2022/08/16 05:22:26;;;;;;;3.13;2.83;;;24.80;48.50;;;;;;5110086;27;45355;-73
2022/08/16 05:24:54;;;;;;;4.10;3.08;;;24.70;48.80;;;;;;5109298;27;45193;-73
2022/08/16 05:27:21;;;;;;;5.85;3.05;;;24.70;50.50;;;;;;5109780;27;45442;-73
2022/08/16 05:29:48;;;;;;;3.60;3.30;;;24.70;50.20;;;;;;5115434;27;46700;-72
2022/08/16 05:32:14;;;;;;;4.38;3.28;;;24.60;50.20;;;;;;5130699;27;45397;-73
2022/08/16 05:34:41;;;;;;;6.20;3.25;;;24.60;50.40;;;;;;5129953;27;45292;-73
2022/08/16 05:37:08;;;;;;;3.75;2.85;;;24.50;50.50;;;;;;5130469;27;45241;-73
2022/08/16 05:39:35;;;;;;;3.60;3.00;;;24.50;51.20;;;;;;5130308;27;45234;-73
2022/08/16 05:42:03;;;;;;;3.22;3.00;;;24.50;50.60;;;;;;5130291;27;45211;-73
2022/08/16 05:44:30;;;;;;;3.25;3.03;;;24.50;50.80;;;;;;5130387;27;45279;-73
2022/08/16 05:46:58;;;;;;;4.40;3.30;;;24.50;50.60;;;;;;5130632;27;45289;-73
2022/08/16 05:49:25;;;;;;;3.45;3.15;;;24.50;50.80;;;;;;5129867;27;46379;-73
2022/08/16 05:51:53;;;;;;;3.78;3.35;;;24.50;50.90;;;;;;5121943;27;45250;-73
2022/08/16 05:54:20;;;;;;;4.63;3.35;;;24.50;51.30;;;;;;5109540;27;45290;-73
2022/08/16 05:56:47;;;;;;;3.63;3.10;;;24.50;51.40;;;;;;5109647;27;45308;-73
2022/08/16 05:59:16;;;;;;;3.33;2.95;;;24.50;51.70;;;;;;5109209;27;45198;-73
2022/08/16 06:01:44;;;;;;;5.72;3.45;;;24.40;52.00;;;;;;5109392;27;45222;-74
2022/08/16 06:04:11;;;;;;;4.60;3.17;;;24.50;52.00;;;;;;5109559;27;45329;-73
2022/08/16 06:06:38;;;;;;;6.30;3.30;;;24.50;52.00;;;;;;5109459;27;45349;-73
2022/08/16 06:09:05;;;;;;;4.35;3.38;;;24.50;52.00;;;;;;5109014;27;47918;-73
2022/08/16 06:11:32;;;;;;;3.88;3.28;;;24.40;52.00;;;;;;5109195;27;45192;-73
2022/08/16 06:13:59;;;;;;;4.25;3.05;;;24.40;51.90;;;;;;5109238;27;45283;-73
2022/08/16 06:16:27;;;;;;;4.38;3.55;;;24.40;52.00;;;;;;5109369;27;45457;-73
2022/08/16 06:18:54;;;;;;;5.72;3.20;;;24.50;52.00;;;;;;5108897;27;47362;-73
2022/08/16 06:21:21;;;;;;;4.28;3.20;;;24.50;51.90;;;;;;5108304;27;45161;-73
2022/08/16 06:23:47;;;;;;;5.18;3.13;;;24.50;51.70;;;;;;5109076;27;45268;-73
2022/08/16 06:26:14;;;;;;;6.63;3.25;;;24.50;52.00;;;;;;5109389;27;45450;-73
2022/08/16 06:28:41;;;;;;;3.67;3.30;;;24.50;51.90;;;;;;5108898;27;46522;-74
2022/08/16 06:31:08;;;;;;;3.95;3.00;;;24.50;51.60;;;;;;5125696;27;45332;-73
2022/08/16 06:33:36;;;;;;;4.32;3.30;;;24.50;51.60;;;;;;5129634;27;45201;-73
2022/08/16 06:36:04;;;;;;;4.95;3.28;;;24.50;51.40;;;;;;5129439;27;45416;-74
2022/08/16 06:38:31;;;;;;;4.00;3.03;;;24.50;51.40;;;;;;5129222;27;46378;-74
2022/08/16 06:40:58;;;;;;;4.50;3.58;;;24.50;51.40;;;;;;5129250;27;45346;-73
2022/08/16 06:43:24;;;;;;;5.28;3.47;;;24.60;52.40;;;;;;5129452;27;45187;-73
2022/08/16 06:45:51;;;;;;;4.72;3.60;;;24.50;52.80;;;;;;5129651;27;45163;-73
2022/08/16 06:48:19;;;;;;;6.45;3.65;;;24.50;52.60;;;;;;5129155;27;45261;-74
2022/08/16 06:50:51;;;;;;;4.95;3.63;;;24.60;52.90;;;;;;5129246;27;45319;-73
2022/08/16 06:53:18;;;;;;;5.88;3.78;;;24.60;52.90;;;;;;5108997;27;45130;-73
2022/08/16 06:55:44;;;;;;;4.85;3.38;;;24.60;52.70;;;;;;5108750;27;45432;-73
2022/08/16 06:58:11;;;;;;;5.95;3.42;;;24.60;52.60;;;;;;5108479;27;46487;-73
2022/08/16 07:00:38;;;;;;;6.97;3.45;;;24.60;52.70;;;;;;5108309;27;45293;-73
2022/08/16 07:03:05;;;;;;;6.50;4.25;;;24.60;52.60;;;;;;5108783;27;45212;-73
2022/08/16 07:05:32;;;;;;;6.07;3.78;;;24.60;53.40;;;;;;5108146;27;45486;-72
2022/08/16 07:08:03;;;;;;;7.15;3.70;;;24.60;52.90;;;;;;5104925;27;45330;-73
2022/08/16 07:10:29;;;;;;;3.80;3.28;;;24.60;52.70;;;;;;5108247;27;45134;-73
2022/08/16 07:12:56;;;;;;;5.57;3.80;;;24.60;52.80;;;;;;5108064;27;45201;-73
2022/08/16 07:15:23;;;;;;;5.15;3.35;;;24.60;53.10;;;;;;5108584;27;45178;-74
2022/08/16 07:17:50;;;;;;;4.47;3.33;;;24.70;52.30;;;;;;5107957;27;46650;-74
2022/08/16 07:20:18;;;;;;;5.70;3.60;;;24.70;52.10;;;;;;5108058;27;45316;-73
2022/08/16 07:22:45;;;;;;;4.28;3.40;;;24.70;52.00;;;;;;5108155;27;45189;-73
2022/08/16 07:25:14;;;;;;;3.38;3.03;;;24.70;52.40;;;;;;5108377;27;45180;-73
2022/08/16 07:27:41;;;;;;;5.80;3.30;;;24.70;52.20;;;;;;5107941;27;46709;-74
2022/08/16 07:30:10;;;;;;;3.17;2.92;;;24.70;51.80;;;;;;5116457;27;45322;-73
2022/08/16 07:32:37;;;;;;;3.05;2.80;;;24.80;51.60;;;;;;5128832;27;45128;-73
2022/08/16 07:35:05;;;;;;;4.20;3.60;;;24.80;51.40;;;;;;5129152;27;45387;-73
2022/08/16 07:37:32;;;;;;;3.83;3.28;;;24.80;51.60;;;;;;5126144;27;47621;-73
2022/08/16 07:39:58;;;;;;;7.53;3.40;;;24.90;51.50;;;;;;5128425;27;45254;-73
2022/08/16 07:42:27;;;;;;;3.88;3.20;;;24.90;51.50;;;;;;5128524;27;45137;-73
2022/08/16 07:44:54;;;;;;;4.28;3.50;;;24.90;51.00;;;;;;5128639;27;45397;-73
2022/08/16 07:47:20;;;;;;;3.65;3.20;;;24.90;51.30;;;;;;5128171;27;45438;-73
2022/08/16 07:49:47;;;;;;;4.57;3.13;;;25.00;50.90;;;;;;5127367;27;45234;-73
2022/08/16 07:52:14;;;;;;;4.55;3.15;;;25.00;50.30;;;;;;5117059;27;45243;-72
2022/08/16 07:54:41;;;;;;;4.93;3.38;;;25.10;50.10;;;;;;5107107;27;45130;-73
2022/08/16 07:57:08;;;;;;;7.90;3.80;;;25.10;50.30;;;;;;5107263;27;45307;-72
2022/08/16 07:59:36;;;;;;;4.28;3.40;;;25.10;50.80;;;;;;5107460;27;45328;-73
2022/08/16 08:02:03;;;;;;;5.95;3.55;;;25.10;50.70;;;;;;5107471;27;45301;-73
2022/08/16 08:04:31;;;;;;;4.03;3.10;;;25.20;50.60;;;;;;5107589;27;45189;-73
2022/08/16 08:06:58;;;;;;;5.55;3.20;;;25.20;50.80;;;;;;5107029;27;45238;-73
2022/08/16 08:09:25;;;;;;;4.18;3.13;;;25.20;51.60;;;;;;5107232;27;45252;-73
2022/08/16 08:11:52;;;;;;;4.60;3.25;;;25.20;51.00;;;;;;5107446;27;45265;-73
2022/08/16 08:14:20;;;;;;;5.68;3.20;;;25.20;51.50;;;;;;5107454;27;45404;-73
2022/08/16 08:16:48;;;;;;;7.00;3.50;;;25.20;51.30;;;;;;5107144;27;46778;-73
2022/08/16 08:19:15;;;;;;;3.95;3.45;;;25.20;51.70;;;;;;5106823;27;45318;-73
2022/08/16 08:21:42;;;;;;;3.65;3.35;;;25.20;51.60;;;;;;5107088;27;45239;-73
2022/08/16 08:24:09;;;;;;;4.18;3.20;;;25.30;51.20;;;;;;5107409;27;45238;-73
2022/08/16 08:26:36;;;;;;;4.80;3.17;;;25.30;51.50;;;;;;5107084;27;45251;-73
2022/08/16 08:29:03;;;;;;;3.15;2.85;;;25.30;51.20;;;;;;5106909;27;45172;-73
2022/08/16 08:31:30;;;;;;;3.28;2.97;;;25.40;51.10;;;;;;5127408;27;45382;-73
2022/08/16 08:33:58;;;;;;;4.35;3.28;;;25.40;50.60;;;;;;5127693;27;45320;-74
2022/08/16 08:36:26;;;;;;;5.65;3.05;;;25.50;51.00;;;;;;5127320;27;46879;-73
2022/08/16 08:38:53;;;;;;;4.05;3.38;;;25.50;50.60;;;;;;5127091;27;45221;-73
2022/08/16 08:41:20;;;;;;;4.00;3.03;;;25.50;50.80;;;;;;5127208;27;45290;-73
2022/08/16 08:43:47;;;;;;;3.78;3.10;;;25.60;50.80;;;;;;5127934;27;45309;-74
2022/08/16 08:46:14;;;;;;;7.88;3.53;;;25.60;50.70;;;;;;5127563;27;46378;-74
2022/08/16 08:48:40;;;;;;;4.50;3.42;;;25.60;50.80;;;;;;5127079;27;45263;-74
2022/08/16 08:51:09;;;;;;;4.10;3.22;;;25.70;50.70;;;;;;5125853;27;45279;-74
2022/08/16 08:53:36;;;;;;;3.35;3.05;;;25.70;50.80;;;;;;5107129;27;45344;-74
2022/08/16 08:56:04;;;;;;;4.50;3.25;;;25.70;50.60;;;;;;5106668;27;46668;-74
2022/08/16 08:58:32;;;;;;;6.80;3.63;;;25.70;50.70;;;;;;5106609;27;45259;-74
2022/08/16 09:00:59;;;;;;;3.40;3.10;;;25.80;50.70;;;;;;5109539;27;45133;-74
2022/08/16 09:03:25;;;;;;;4.00;2.92;;;25.80;50.80;;;;;;5110474;27;45313;-74
2022/08/16 09:05:53;;;;;;;5.13;3.20;;;25.90;50.80;;;;;;5110278;27;46383;-73
2022/08/16 09:08:21;;;;;;;4.57;3.60;;;25.90;50.80;;;;;;5110148;27;45292;-73
2022/08/16 09:10:47;;;;;;;4.80;3.40;;;25.90;50.60;;;;;;5110382;27;45218;-73
2022/08/16 09:13:15;;;;;;;9.63;3.50;;;26.00;50.60;;;;;;5110337;27;45367;-74
2022/08/16 09:15:43;;;;;;;6.35;3.60;;;26.00;50.10;;;;;;5109669;27;45777;-73
2022/08/16 09:18:10;;;;;;;4.57;3.20;;;25.90;50.10;;;;;;5109790;27;45368;-73
2022/08/16 09:20:36;;;;;;;3.92;3.53;;;26.00;50.10;;;;;;5110147;27;45137;-73
2022/08/16 09:23:03;;;;;;;7.45;3.33;;;26.00;50.10;;;;;;5110089;27;45217;-74
2022/08/16 09:25:32;;;;;;;3.63;3.13;;;26.10;50.70;;;;;;5109067;27;45307;-72
2022/08/16 09:27:59;;;;;;;7.15;3.30;;;26.10;49.60;;;;;;5109395;27;45290;-72
2022/08/16 09:30:26;;;;;;;7.45;3.70;;;26.10;49.50;;;;;;5120854;27;45180;-72
2022/08/16 09:32:53;;;;;;;4.03;3.42;;;26.10;49.50;;;;;;5130902;27;45227;-73
2022/08/16 09:35:20;;;;;;;4.22;3.55;;;26.20;49.50;;;;;;5130421;27;46654;-72
2022/08/16 09:37:47;;;;;;;4.68;3.92;;;26.20;49.70;;;;;;5129993;27;45341;-73
2022/08/16 09:40:14;;;;;;;6.68;4.20;;;26.30;49.50;;;;;;5130610;27;45281;-72
2022/08/16 09:42:42;;;;;;;5.13;3.60;;;26.30;49.40;;;;;;5130520;27;45267;-72
2022/08/16 09:45:10;;;;;;;5.60;3.60;;;26.30;48.90;;;;;;5130183;27;46730;-72
2022/08/16 09:47:39;;;;;;;4.90;3.47;;;26.40;49.00;;;;;;5130213;27;45256;-72
2022/08/16 09:50:07;;;;;;;3.83;3.42;;;26.40;49.00;;;;;;5130379;27;45290;-72
2022/08/16 09:52:36;;;;;;;6.55;3.55;;;26.40;48.70;;;;;;5116008;27;45300;-71
2022/08/16 09:55:04;;;;;;;4.40;3.47;;;26.50;49.30;;;;;;5109327;27;46421;-72
2022/08/16 09:57:31;;;;;;;3.80;2.97;;;26.50;48.70;;;;;;5109336;27;45369;-71
2022/08/16 10:00:00;;;;;;;4.28;3.17;;;26.50;48.60;;;;;;5109165;27;45135;-72
2022/08/16 10:02:27;;;;;;;5.78;3.78;;;26.60;48.40;;;;;;5109677;27;45315;-72
2022/08/16 10:04:54;;;;;;;4.22;3.58;;;26.60;48.40;;;;;;5109077;27;45321;-72
2022/08/16 10:07:21;;;;;;;5.38;3.22;;;26.70;48.30;;;;;;5109120;27;45189;-72
2022/08/16 10:09:48;;;;;;;5.50;3.67;;;26.70;47.80;;;;;;5109219;27;45198;-72
2022/08/16 10:15:00;;;;;;;3.67;2.78;;;26.80;47.00;;;;;;5106309;27;45247;-72
2022/08/16 10:17:27;;;;;;;4.88;3.33;;;26.80;46.90;;;;;;5108907;27;45295;-73
2022/08/16 10:19:55;;;;;;;6.38;3.20;;;26.90;47.20;;;;;;5108256;27;45271;-73
2022/08/16 10:22:21;;;;;;;6.53;3.60;;;26.90;47.60;;;;;;5109070;27;45163;-72
2022/08/16 10:24:48;;;;;;;5.25;3.45;;;26.90;47.90;;;;;;5105945;27;45527;-73
2022/08/16 10:27:15;;;;;;;5.07;3.63;;;27.00;46.70;;;;;;5108869;27;45257;-73
2022/08/16 10:29:42;;;;;;;7.70;3.42;;;27.00;46.30;;;;;;5108875;27;45295;-73
2022/08/16 10:32:10;;;;;;;5.03;3.58;;;27.10;46.10;;;;;;5108989;27;45372;-72
2022/08/16 10:34:37;;;;;;;3.53;3.20;;;27.10;46.40;;;;;;5108506;27;45269;-73
2022/08/16 10:37:04;;;;;;;6.00;3.15;;;27.10;45.80;;;;;;5108192;27;45209;-73
2022/08/16 10:39:31;;;;;;;4.82;3.22;;;27.20;46.10;;;;;;5108680;27;45349;-72
2022/08/16 10:41:58;;;;;;;3.97;3.38;;;27.20;46.10;;;;;;5108563;27;45542;-72
2022/08/16 10:44:24;;;;;;;3.58;2.92;;;27.20;45.50;;;;;;5108482;27;45385;-74
2022/08/16 10:46:52;;;;;;;4.88;3.00;;;27.30;45.90;;;;;;5107936;27;45339;-73
2022/08/16 10:49:20;;;;;;;4.90;3.75;;;27.40;45.70;;;;;;5108411;27;45137;-74
2022/08/16 10:51:47;;;;;;;7.13;2.97;;;27.40;45.30;;;;;;5116253;27;45318;-73
2022/08/16 10:54:14;;;;;;;3.20;2.92;;;27.50;45.00;;;;;;5128713;27;45366;-73
2022/08/16 10:56:42;;;;;;;3.30;2.95;;;27.50;44.30;;;;;;5128863;27;45248;-74
2022/08/16 10:59:09;;;;;;;4.05;3.03;;;27.50;43.50;;;;;;5129153;27;45422;-74
2022/08/16 11:01:36;;;;;;;4.50;2.67;;;27.60;43.40;;;;;;5129116;27;45466;-73
2022/08/16 11:04:04;;;;;;;4.13;2.80;;;27.70;43.10;;;;;;5127929;27;45298;-73
2022/08/16 11:06:32;;;;;;;3.10;2.80;;;27.70;43.20;;;;;;5128781;27;45267;-73
2022/08/16 11:08:59;;;;;;;3.05;2.67;;;27.70;41.90;;;;;;5128840;27;45284;-73
2022/08/16 11:11:26;;;;;;;2.72;2.50;;;27.80;42.70;;;;;;5128899;27;45319;-73
2022/08/16 11:13:53;;;;;;;4.68;2.50;;;27.90;42.00;;;;;;5128436;27;46364;-73
2022/08/16 11:16:20;;;;;;;4.57;2.78;;;27.90;41.10;;;;;;5128753;27;45335;-73
2022/08/16 11:18:47;;;;;;;3.97;2.60;;;27.90;40.60;;;;;;5128931;27;45372;-73
2022/08/16 11:21:14;;;;;;;2.85;2.40;;;28.00;40.70;;;;;;5129016;27;45215;-73
2022/08/16 11:23:42;;;;;;;4.57;2.72;;;28.00;40.80;;;;;;5128426;27;46382;-73
2022/08/16 11:26:09;;;;;;;2.88;2.47;;;28.10;40.80;;;;;;5128538;27;45298;-73
2022/08/16 11:28:36;;;;;;;2.85;2.55;;;28.10;41.20;;;;;;5128496;27;45370;-73
2022/08/16 11:31:03;;;;;;;3.47;2.75;;;28.20;41.40;;;;;;5112506;27;45168;-73
2022/08/16 11:33:30;;;;;;;3.85;3.10;;;28.30;42.00;;;;;;5107694;27;45529;-74
2022/08/16 11:35:56;;;;;;;3.38;3.10;;;28.40;42.30;;;;;;5107413;27;45319;-74
2022/08/16 11:38:23;;;;;;;4.38;3.08;;;28.40;42.20;;;;;;5107921;27;45360;-74
2022/08/16 11:40:55;;;;;;;4.03;3.13;;;28.50;42.00;;;;;;5107912;27;45427;-74
2022/08/16 11:43:23;;;;;;;8.82;2.60;;;28.60;41.40;;;;;;5107434;27;46412;-73
2022/08/16 11:45:50;;;;;;;4.60;2.83;;;28.70;41.10;;;;;;5107480;27;45350;-73
2022/08/16 11:48:17;;;;;;;4.82;3.08;;;28.70;42.00;;;;;;5107685;27;45252;-72
2022/08/16 11:50:45;;;;;;;5.95;2.85;;;28.70;40.70;;;;;;5106818;27;45286;-73
2022/08/16 11:53:13;;;;;;;5.45;2.58;;;28.80;40.10;;;;;;5125766;27;46601;-73
2022/08/16 11:55:40;;;;;;;5.10;2.67;;;28.90;39.70;;;;;;5127994;27;45350;-72
2022/08/16 11:58:08;;;;;;;2.45;2.25;;;29.00;38.90;;;;;;5128207;27;45248;-72
2022/08/16 12:00:36;;;;;;;2.45;2.33;;;29.00;39.00;;;;;;5128464;27;45387;-73
2022/08/16 12:03:03;;;;;;;2.65;2.42;;;29.00;38.20;;;;;;5127747;27;45842;-73
2022/08/16 12:05:30;;;;;;;2.97;2.15;;;29.10;38.60;;;;;;5127908;27;45228;-73
2022/08/16 12:07:56;;;;;;;5.70;2.28;;;29.20;37.90;;;;;;5128219;27;45312;-73
2022/08/16 12:10:24;;;;;;;4.68;2.97;;;29.20;37.60;;;;;;5128414;27;45180;-73
2022/08/16 12:12:51;;;;;;;3.78;2.20;;;29.20;37.80;;;;;;5127460;27;45213;-73
2022/08/16 12:15:20;;;;;;;3.03;2.40;;;29.30;37.20;;;;;;5127708;27;45309;-74
2022/08/16 12:17:46;;;;;;;2.40;2.20;;;29.30;36.90;;;;;;5128243;27;45339;-73
2022/08/16 12:20:14;;;;;;;4.32;2.20;;;29.40;37.00;;;;;;5126616;27;45485;-73
2022/08/16 12:22:41;;;;;;;4.72;2.20;;;29.50;36.60;;;;;;5127652;27;46545;-74
2022/08/16 12:25:09;;;;;;;4.22;2.08;;;29.50;36.10;;;;;;5127603;27;45248;-73
2022/08/16 12:27:36;;;;;;;2.70;2.50;;;29.50;36.30;;;;;;5127675;27;45284;-74
2022/08/16 12:30:04;;;;;;;3.15;2.00;;;29.50;37.30;;;;;;5120121;27;45383;-74
2022/08/16 12:32:32;;;;;;;3.10;2.30;;;29.70;37.50;;;;;;5106878;27;47331;-74
2022/08/16 12:35:00;;;;;;;3.40;2.40;;;29.70;37.50;;;;;;5108300;27;45368;-73
2022/08/16 12:37:27;;;;;;;4.22;2.30;;;29.80;36.00;;;;;;5110358;27;45498;-72
2022/08/16 12:39:55;;;;;;;3.58;2.30;;;29.80;36.40;;;;;;5109745;27;45234;-74
2022/08/16 12:42:22;;;;;;;3.28;2.50;;;29.80;36.20;;;;;;5110170;27;45666;-74
2022/08/16 12:44:49;;;;;;;4.95;2.55;;;29.80;36.60;;;;;;5110343;27;45301;-74
2022/08/16 12:50:01;;;;;;;3.05;2.38;;;29.90;37.30;;;;;;5107725;27;45421;-74
2022/08/16 12:52:29;;;;;;;3.15;2.38;;;30.00;36.80;;;;;;5123374;27;46388;-74